createdAt,value
2023-03-03T00:01:53.951Z,99.70
2023-03-03T00:04:21.019Z,99.20
2023-03-03T00:06:48.043Z,99.30
2023-03-03T00:09:15.090Z,99.10
2023-03-03T00:11:42.476Z,98.00
2023-03-03T00:14:30.462Z,98.70
2023-03-03T00:17:01.035Z,99.30
2023-03-03T00:19:36.680Z,99.90
2023-03-03T00:22:23.545Z,99.90
2023-03-03T00:24:50.813Z,99.90
2023-03-03T00:27:29.568Z,99.90
2023-03-03T00:30:01.066Z,99.90
2023-03-03T00:32:38.731Z,99.90
2023-03-03T00:35:30.501Z,99.90
2023-03-03T00:38:10.508Z,99.90
2023-03-03T00:40:39.597Z,99.90
2023-03-03T00:43:19.313Z,99.90
2023-03-03T00:45:55.213Z,99.90
2023-03-03T00:48:25.317Z,99.90
2023-03-03T00:50:57.953Z,99.90
2023-03-03T00:53:27.784Z,99.90
2023-03-03T00:55:55.178Z,99.90
2023-03-03T00:58:23.613Z,99.90
2023-03-03T01:00:53.124Z,99.90
2023-03-03T01:03:26.505Z,99.90
2023-03-03T01:05:54.805Z,99.90
2023-03-03T01:08:22.805Z,99.90
2023-03-03T01:10:56.155Z,99.90
2023-03-03T01:13:28.373Z,99.90
2023-03-03T01:15:55.675Z,99.90
2023-03-03T01:18:22.760Z,99.90
2023-03-03T01:20:50.818Z,99.90
2023-03-03T01:23:18.623Z,99.90
2023-03-03T01:25:45.767Z,99.90
2023-03-03T01:28:12.884Z,99.90
2023-03-03T01:30:40.329Z,99.90
2023-03-03T01:33:07.557Z,99.90
2023-03-03T01:35:36.665Z,99.90
2023-03-03T01:38:04.364Z,99.90
2023-03-03T01:40:31.881Z,99.90
2023-03-03T01:43:02.396Z,99.90
2023-03-03T01:45:49.452Z,99.90
2023-03-03T01:48:22.499Z,99.90
2023-03-03T01:50:55.687Z,99.90
2023-03-03T01:53:44.807Z,99.90
2023-03-03T01:56:12.035Z,99.90
2023-03-03T01:58:50.484Z,99.90
2023-03-03T02:01:23.071Z,99.90
2023-03-03T02:03:53.471Z,99.90
2023-03-03T02:06:25.149Z,99.90
2023-03-03T02:09:35.360Z,99.90
2023-03-03T02:12:08.235Z,99.90
2023-03-03T02:14:36.906Z,99.90
2023-03-03T02:17:04.069Z,99.90
2023-03-03T02:19:50.039Z,99.90
2023-03-03T02:22:23.042Z,99.90
2023-03-03T02:24:54.306Z,99.90
2023-03-03T02:27:21.450Z,99.90
2023-03-03T02:29:48.615Z,99.90
2023-03-03T02:32:15.710Z,99.90
2023-03-03T02:34:52.540Z,99.90
2023-03-03T02:37:20.793Z,99.90
2023-03-03T02:39:48.144Z,99.90
2023-03-03T02:42:19.174Z,99.90
2023-03-03T02:44:51.402Z,99.90
2023-03-03T02:47:18.809Z,99.90
2023-03-03T02:49:45.908Z,99.90
2023-03-03T02:52:15.156Z,99.90
2023-03-03T02:54:45.842Z,99.90
2023-03-03T02:57:13.102Z,99.90
2023-03-03T02:59:40.171Z,99.90
2023-03-03T03:02:12.085Z,99.90
2023-03-03T03:04:39.384Z,99.90
2023-03-03T03:07:06.876Z,99.90
2023-03-03T03:09:36.865Z,99.90
2023-03-03T03:12:05.451Z,99.90
2023-03-03T03:14:35.675Z,99.90
2023-03-03T03:17:02.721Z,99.90
2023-03-03T03:19:30.105Z,99.90
2023-03-03T03:22:01.044Z,99.90
2023-03-03T03:24:29.631Z,99.90
2023-03-03T03:27:02.312Z,99.90
2023-03-03T03:29:30.216Z,99.90
2023-03-03T03:31:57.521Z,99.90
2023-03-03T03:34:25.069Z,99.90
2023-03-03T03:36:53.782Z,99.90
2023-03-03T03:39:22.768Z,99.90
2023-03-03T03:41:52.052Z,99.90
2023-03-03T03:44:20.003Z,99.90
2023-03-03T03:46:47.096Z,99.90
2023-03-03T03:49:14.455Z,99.90
2023-03-03T03:51:42.405Z,99.90
2023-03-03T03:54:13.479Z,99.90
2023-03-03T03:56:41.842Z,99.90
2023-03-03T03:59:09.775Z,99.90
2023-03-03T04:01:38.093Z,99.90
2023-03-03T04:04:05.462Z,99.90
2023-03-03T04:06:33.324Z,99.90
2023-03-03T04:09:02.085Z,99.90
2023-03-03T04:11:30.458Z,99.90
2023-03-03T04:13:58.900Z,99.90
2023-03-03T04:16:29.120Z,99.90
2023-03-03T04:18:56.198Z,99.90
2023-03-03T04:21:25.343Z,99.90
2023-03-03T04:23:54.701Z,99.90
2023-03-03T04:26:22.315Z,99.90
2023-03-03T04:28:49.865Z,99.90
2023-03-03T04:31:18.087Z,99.90
2023-03-03T04:33:45.334Z,99.90
2023-03-03T04:36:12.559Z,99.90
2023-03-03T04:38:40.424Z,99.90
2023-03-03T04:41:09.575Z,99.90
2023-03-03T04:43:38.677Z,99.90
2023-03-03T04:46:06.422Z,99.90
2023-03-03T04:48:34.348Z,99.90
2023-03-03T04:51:02.790Z,99.90
2023-03-03T04:53:33.023Z,99.90
2023-03-03T04:56:00.365Z,99.90
2023-03-03T04:58:27.362Z,99.90
2023-03-03T05:00:57.434Z,99.90
2023-03-03T05:03:27.472Z,99.90
2023-03-03T05:05:55.099Z,99.90
2023-03-03T05:08:22.485Z,99.90
2023-03-03T05:10:54.329Z,99.90
2023-03-03T05:13:21.296Z,99.90
2023-03-03T05:15:56.011Z,99.90
2023-03-03T05:18:24.567Z,99.90
2023-03-03T05:20:52.819Z,99.90
2023-03-03T05:23:21.232Z,99.90
2023-03-03T05:25:49.097Z,99.90
2023-03-03T05:28:16.555Z,99.90
2023-03-03T05:30:43.793Z,99.90
2023-03-03T05:33:16.124Z,99.90
2023-03-03T05:35:43.698Z,99.90
2023-03-03T05:38:11.582Z,99.90
2023-03-03T05:40:39.267Z,99.90
2023-03-03T05:43:07.138Z,99.90
2023-03-03T05:45:35.359Z,99.90
2023-03-03T05:48:03.333Z,99.90
2023-03-03T05:50:30.851Z,99.90
2023-03-03T05:52:58.397Z,99.90
2023-03-03T05:55:25.730Z,99.90
2023-03-03T05:57:52.851Z,99.90
2023-03-03T06:00:20.268Z,99.90
2023-03-03T06:02:47.594Z,99.90
2023-03-03T06:05:17.732Z,99.90
2023-03-03T06:07:45.687Z,99.90
2023-03-03T06:10:12.807Z,99.90
2023-03-03T06:12:42.266Z,99.90
2023-03-03T06:15:18.103Z,99.90
2023-03-03T06:17:45.161Z,99.90
2023-03-03T06:20:12.212Z,99.90
2023-03-03T06:22:39.355Z,99.90
2023-03-03T06:25:06.522Z,99.90
2023-03-03T06:27:34.025Z,99.90
2023-03-03T06:30:01.206Z,99.90
2023-03-03T06:32:28.198Z,99.90
2023-03-03T06:34:55.301Z,99.90
2023-03-03T06:37:22.802Z,99.90
2023-03-03T06:39:51.751Z,99.90
2023-03-03T06:42:19.920Z,99.90
2023-03-03T06:44:47.519Z,99.90
2023-03-03T06:47:14.874Z,99.90
2023-03-03T06:49:42.940Z,99.90
2023-03-03T06:52:22.486Z,99.90
2023-03-03T06:54:51.085Z,99.90
2023-03-03T06:57:23.313Z,99.90
2023-03-03T06:59:56.208Z,99.90
2023-03-03T07:02:23.797Z,99.90
2023-03-03T07:04:51.072Z,99.90
2023-03-03T07:07:21.291Z,99.90
2023-03-03T07:09:54.680Z,99.90
2023-03-03T07:12:32.116Z,99.90
2023-03-03T07:15:23.080Z,99.90
2023-03-03T07:17:58.274Z,99.90
2023-03-03T07:20:32.780Z,99.90
2023-03-03T07:23:00.430Z,99.90
2023-03-03T07:25:39.221Z,99.90
2023-03-03T07:28:33.268Z,99.90
2023-03-03T07:31:00.502Z,99.90
2023-03-03T07:33:34.717Z,99.90
2023-03-03T07:36:06.447Z,99.90
2023-03-03T07:39:02.017Z,99.90
2023-03-03T07:41:30.987Z,99.90
2023-03-03T07:44:19.170Z,99.90
2023-03-03T07:46:50.595Z,99.90
2023-03-03T07:49:36.877Z,99.90
2023-03-03T07:52:25.201Z,99.90
2023-03-03T07:54:53.507Z,99.90
2023-03-03T07:57:35.220Z,99.90
2023-03-03T08:00:28.646Z,99.90
2023-03-03T08:03:00.706Z,99.90
2023-03-03T08:05:40.629Z,99.90
2023-03-03T08:08:10.520Z,99.90
2023-03-03T08:10:53.964Z,99.90
2023-03-03T08:13:29.700Z,99.90
2023-03-03T08:16:22.927Z,99.90
2023-03-03T08:18:53.521Z,99.90
2023-03-03T08:21:24.282Z,99.90
2023-03-03T08:23:53.645Z,99.90
2023-03-03T08:26:25.587Z,99.90
2023-03-03T08:28:54.574Z,99.90
2023-03-03T08:31:38.450Z,99.90
2023-03-03T08:34:07.836Z,99.90
2023-03-03T08:36:35.223Z,99.90
2023-03-03T08:39:03.230Z,99.90
2023-03-03T08:41:30.393Z,99.90
2023-03-03T08:43:57.618Z,99.90
2023-03-03T08:46:25.088Z,99.90
2023-03-03T08:48:54.460Z,99.90
2023-03-03T08:51:21.644Z,99.90
2023-03-03T08:53:55.195Z,99.90
2023-03-03T08:56:22.204Z,99.90
2023-03-03T08:59:01.774Z,99.90
2023-03-03T09:01:31.508Z,99.90
2023-03-03T09:03:58.819Z,99.90
2023-03-03T09:06:26.019Z,99.90
2023-03-03T09:08:55.024Z,99.90
2023-03-03T09:11:28.291Z,99.90
2023-03-03T09:14:15.595Z,99.90
2023-03-03T09:16:53.402Z,99.90
2023-03-03T09:19:38.451Z,99.90
2023-03-03T09:22:36.503Z,99.90
2023-03-03T09:25:15.066Z,99.90
2023-03-03T09:27:42.085Z,99.90
2023-03-03T09:30:39.622Z,99.90
2023-03-03T09:33:52.083Z,99.90
2023-03-03T09:36:21.776Z,99.90
2023-03-03T09:38:49.684Z,99.90
2023-03-03T09:41:53.855Z,99.90
2023-03-03T09:44:41.060Z,99.90
2023-03-03T09:47:25.146Z,99.90
2023-03-03T09:49:52.601Z,99.90
2023-03-03T09:52:53.368Z,99.90
2023-03-03T09:55:25.332Z,98.40
2023-03-03T09:58:13.765Z,96.80
2023-03-03T10:00:55.134Z,94.60
2023-03-03T10:04:13.038Z,93.80
2023-03-03T10:07:07.259Z,93.10
2023-03-03T10:10:04.618Z,92.00
2023-03-03T10:13:06.383Z,92.30
2023-03-03T10:15:40.492Z,90.10
2023-03-03T10:18:25.531Z,90.10
2023-03-03T10:21:02.390Z,87.60
2023-03-03T10:23:59.197Z,84.20
2023-03-03T10:27:12.066Z,82.70
2023-03-03T10:30:04.072Z,81.90
2023-03-03T10:32:42.504Z,81.20
2023-03-03T10:35:23.720Z,80.00
2023-03-03T10:38:23.133Z,79.80
2023-03-03T10:40:55.129Z,78.50
2023-03-03T10:43:51.400Z,78.30
2023-03-03T10:46:52.284Z,76.80
2023-03-03T10:49:46.031Z,77.10
2023-03-03T10:52:32.552Z,77.70
2023-03-03T10:55:21.652Z,75.10
2023-03-03T10:58:05.590Z,72.00
2023-03-03T11:00:49.948Z,70.70
2023-03-03T11:03:40.107Z,69.70
2023-03-03T11:06:37.594Z,66.80
2023-03-03T11:09:31.371Z,64.40
2023-03-03T11:12:24.348Z,60.20
2023-03-03T11:15:04.586Z,60.30
2023-03-03T11:18:04.139Z,60.70
2023-03-03T11:20:38.825Z,57.40
2023-03-03T11:23:45.532Z,57.00
2023-03-03T11:26:12.727Z,56.20
2023-03-03T11:29:12.279Z,55.70
2023-03-03T11:31:53.573Z,56.90
2023-03-03T11:34:50.799Z,55.10
2023-03-03T11:37:39.326Z,54.10
2023-03-03T11:40:40.482Z,49.10
2023-03-03T11:43:38.633Z,48.70
2023-03-03T11:46:25.538Z,47.90
2023-03-03T11:49:35.117Z,47.20
2023-03-03T11:52:28.643Z,46.90
2023-03-03T11:55:01.530Z,46.20
2023-03-03T11:58:01.052Z,45.50
2023-03-03T12:01:09.455Z,45.80
2023-03-03T12:03:52.164Z,43.40
2023-03-03T12:06:32.972Z,46.00
2023-03-03T12:09:27.447Z,47.70
2023-03-03T12:11:57.146Z,46.20
2023-03-03T12:14:24.199Z,44.70
2023-03-03T12:17:03.357Z,43.50
2023-03-03T12:19:48.619Z,43.20
2023-03-03T12:22:39.670Z,46.70
2023-03-03T12:25:21.555Z,46.70
2023-03-03T12:27:51.508Z,45.40
2023-03-03T12:30:55.978Z,41.10
2023-03-03T12:33:39.367Z,40.50
2023-03-03T12:36:41.972Z,41.00
2023-03-03T12:39:43.423Z,39.60
2023-03-03T12:42:44.306Z,41.70
2023-03-03T12:45:40.716Z,44.80
2023-03-03T12:48:38.480Z,42.60
2023-03-03T12:51:27.169Z,38.70
2023-03-03T12:54:11.666Z,40.10
2023-03-03T12:57:00.829Z,37.60
2023-03-03T12:59:38.365Z,35.50
2023-03-03T13:02:27.311Z,34.10
2023-03-03T13:05:02.848Z,33.60
2023-03-03T13:07:46.105Z,33.70
2023-03-03T13:10:28.281Z,34.50
2023-03-03T13:13:17.445Z,33.30
2023-03-03T13:16:06.441Z,36.20
2023-03-03T13:18:48.885Z,36.40
2023-03-03T13:21:34.744Z,38.30
2023-03-03T13:24:05.205Z,32.20
2023-03-03T13:26:43.116Z,32.50
2023-03-03T13:29:24.524Z,32.70
2023-03-03T13:32:12.774Z,32.80
2023-03-03T13:34:59.633Z,32.10
2023-03-03T13:37:43.946Z,32.50
2023-03-03T13:40:19.580Z,33.50
2023-03-03T13:42:55.848Z,34.00
2023-03-03T13:45:42.992Z,32.40
2023-03-03T13:48:21.797Z,31.00
2023-03-03T13:51:02.722Z,30.80
2023-03-03T13:53:58.791Z,30.00
2023-03-03T13:56:50.008Z,31.90
2023-03-03T13:59:48.776Z,28.80
2023-03-03T14:02:33.656Z,28.60
2023-03-03T14:05:09.266Z,29.80
2023-03-03T14:07:50.229Z,30.40
2023-03-03T14:10:34.325Z,30.50
2023-03-03T14:13:13.576Z,30.20
2023-03-03T14:16:04.952Z,28.40
2023-03-03T14:18:54.827Z,26.20
2023-03-03T14:21:27.111Z,24.30
2023-03-03T14:24:02.255Z,22.50
2023-03-03T14:26:29.301Z,24.50
2023-03-03T14:29:29.264Z,23.50
2023-03-03T14:31:59.849Z,23.50
2023-03-03T14:34:36.931Z,24.60
2023-03-03T14:37:22.460Z,23.60
2023-03-03T14:40:06.912Z,23.90
2023-03-03T14:42:57.844Z,24.80
2023-03-03T14:45:33.887Z,24.20
2023-03-03T14:48:16.405Z,25.30
2023-03-03T14:51:24.042Z,22.00
2023-03-03T14:53:52.106Z,20.90
2023-03-03T14:56:27.816Z,20.00
2023-03-03T14:59:32.257Z,22.10
2023-03-03T15:02:27.663Z,20.00
2023-03-03T15:05:28.782Z,20.20
2023-03-03T15:07:57.852Z,17.80
2023-03-03T15:10:36.162Z,16.50
2023-03-03T15:13:33.279Z,16.60
2023-03-03T15:16:00.312Z,16.50
2023-03-03T15:18:30.441Z,17.70
2023-03-03T15:21:05.643Z,18.10
2023-03-03T15:23:57.090Z,21.60
2023-03-03T15:26:32.626Z,23.10
2023-03-03T15:29:12.541Z,22.70
2023-03-03T15:32:06.896Z,23.00
2023-03-03T15:35:01.245Z,23.10
2023-03-03T15:37:52.090Z,22.10
2023-03-03T15:40:39.540Z,22.30
2023-03-03T15:43:48.867Z,22.50
2023-03-03T15:46:26.469Z,21.10
2023-03-03T15:49:05.539Z,21.00
2023-03-03T15:52:03.457Z,21.50
2023-03-03T15:54:47.482Z,20.80
2023-03-03T15:57:17.336Z,21.10
2023-03-03T15:59:53.184Z,20.90
2023-03-03T16:02:41.668Z,22.50
2023-03-03T16:05:47.044Z,20.10
2023-03-03T16:08:38.232Z,20.10
2023-03-03T16:11:22.725Z,20.30
2023-03-03T16:14:10.984Z,19.00
2023-03-03T16:17:07.586Z,20.30
2023-03-03T16:20:03.626Z,20.80
2023-03-03T16:23:04.661Z,21.80
2023-03-03T16:25:42.656Z,22.00
2023-03-03T16:28:14.331Z,22.40
2023-03-03T16:30:58.429Z,23.10
2023-03-03T16:33:37.570Z,22.90
2023-03-03T16:36:23.667Z,22.90
2023-03-03T16:39:01.838Z,23.60
2023-03-03T16:41:34.956Z,21.70
2023-03-03T16:44:12.843Z,21.40
2023-03-03T16:46:43.418Z,22.90
2023-03-03T16:49:22.248Z,24.70
2023-03-03T16:52:04.313Z,24.00
2023-03-03T16:54:54.590Z,24.60
2023-03-03T16:57:27.194Z,23.20
2023-03-03T17:00:22.627Z,24.00
2023-03-03T17:03:01.573Z,22.80
2023-03-03T17:05:43.084Z,21.80
2023-03-03T17:08:57.535Z,20.90
2023-03-03T17:11:46.294Z,22.80
2023-03-03T17:14:40.955Z,23.70
2023-03-03T17:17:55.720Z,23.30
2023-03-03T17:20:48.886Z,25.10
2023-03-03T17:23:25.423Z,25.40
2023-03-03T17:26:14.979Z,25.40
2023-03-03T17:28:51.239Z,26.20
2023-03-03T17:31:51.051Z,26.50
2023-03-03T17:34:29.821Z,27.70
2023-03-03T17:37:20.380Z,28.80
2023-03-03T17:40:28.802Z,28.80
2023-03-03T17:43:25.700Z,27.20
2023-03-03T17:45:56.554Z,27.60
2023-03-03T17:48:31.208Z,27.90
2023-03-03T17:51:01.438Z,26.80
2023-03-03T17:53:47.027Z,26.00
2023-03-03T17:56:21.854Z,26.00
2023-03-03T17:59:18.965Z,26.70
2023-03-03T18:02:03.581Z,27.30
2023-03-03T18:04:48.528Z,27.80
2023-03-03T18:07:15.589Z,27.80
2023-03-03T18:09:45.638Z,28.10
2023-03-03T18:12:53.210Z,28.30
2023-03-03T18:15:38.881Z,28.40
2023-03-03T18:18:23.327Z,28.10
2023-03-03T18:20:56.671Z,28.50
2023-03-03T18:23:43.861Z,29.00
2023-03-03T18:26:36.254Z,29.30
2023-03-03T18:29:22.209Z,29.40
2023-03-03T18:31:59.360Z,29.70
2023-03-03T18:34:41.149Z,30.40
2023-03-03T18:37:40.568Z,30.60
2023-03-03T18:40:14.421Z,30.90
2023-03-03T18:42:43.830Z,31.20
2023-03-03T18:45:20.012Z,31.20
2023-03-03T18:48:20.310Z,31.60
2023-03-03T18:50:50.250Z,30.80
2023-03-03T18:53:37.792Z,31.00
2023-03-03T18:56:14.227Z,31.90
2023-03-03T18:58:44.717Z,32.60
2023-03-03T19:01:40.166Z,32.80
2023-03-03T19:04:23.101Z,33.10
2023-03-03T19:06:51.962Z,33.80
2023-03-03T19:09:57.622Z,33.80
2023-03-03T19:12:53.764Z,34.10
2023-03-03T19:15:30.360Z,34.40
2023-03-03T19:18:04.880Z,34.40
2023-03-03T19:20:42.662Z,34.40
2023-03-03T19:23:20.965Z,34.60
2023-03-03T19:26:25.305Z,35.20
2023-03-03T19:29:19.186Z,35.50
2023-03-03T19:32:03.636Z,36.20
2023-03-03T19:34:55.723Z,36.10
2023-03-03T19:37:45.589Z,35.70
2023-03-03T19:40:42.638Z,36.40
2023-03-03T19:43:28.595Z,36.20
2023-03-03T19:46:41.173Z,36.10
2023-03-03T19:49:10.995Z,36.00
2023-03-03T19:52:02.188Z,36.20
2023-03-03T19:54:46.154Z,35.90
2023-03-03T19:57:41.983Z,36.30
2023-03-03T20:00:19.697Z,37.00
2023-03-03T20:03:04.470Z,37.10
2023-03-03T20:05:41.921Z,38.00
2023-03-03T20:08:22.294Z,38.30
2023-03-03T20:11:19.729Z,38.90
2023-03-03T20:14:02.457Z,38.90
2023-03-03T20:16:41.499Z,39.30
2023-03-03T20:19:27.884Z,39.10
2023-03-03T20:22:06.076Z,39.70
2023-03-03T20:24:58.659Z,39.60
2023-03-03T20:27:57.870Z,39.80
2023-03-03T20:30:28.638Z,40.10
2023-03-03T20:33:07.814Z,40.00
2023-03-03T20:35:48.605Z,39.90
2023-03-03T20:38:33.324Z,39.40
2023-03-03T20:41:25.936Z,38.70
2023-03-03T20:44:27.758Z,38.00
2023-03-03T20:47:01.468Z,37.50
2023-03-03T20:50:12.217Z,37.80
2023-03-03T20:53:07.652Z,37.40
2023-03-03T20:56:25.908Z,36.10
2023-03-03T20:59:34.667Z,36.20
2023-03-03T21:02:21.741Z,37.30
2023-03-03T21:05:09.636Z,37.60
2023-03-03T21:07:38.190Z,37.90
2023-03-03T21:10:17.477Z,37.90
2023-03-03T21:12:47.634Z,38.20
2023-03-03T21:15:33.713Z,38.60
2023-03-03T21:18:19.836Z,39.20
2023-03-03T21:20:50.521Z,39.20
2023-03-03T21:23:22.906Z,39.60
2023-03-03T21:26:00.135Z,39.60
2023-03-03T21:28:30.198Z,38.80
2023-03-03T21:31:14.255Z,39.30
2023-03-03T21:33:42.944Z,39.80
2023-03-03T21:36:12.831Z,39.60
2023-03-03T21:38:41.322Z,39.60
2023-03-03T21:41:11.238Z,39.40
2023-03-03T21:43:42.925Z,39.10
2023-03-03T21:46:11.990Z,39.30
2023-03-03T21:48:44.016Z,39.60
2023-03-03T21:51:14.227Z,39.60
2023-03-03T21:53:44.456Z,39.70
2023-03-03T21:56:14.932Z,39.90
2023-03-03T21:58:43.004Z,40.10
2023-03-03T22:01:10.068Z,39.90
2023-03-03T22:03:37.635Z,39.90
2023-03-03T22:06:08.415Z,40.10
2023-03-03T22:08:35.681Z,40.50
2023-03-03T22:11:04.261Z,40.60
2023-03-03T22:13:33.717Z,40.60
2023-03-03T22:16:00.853Z,40.10
2023-03-03T22:18:28.006Z,39.80
2023-03-03T22:20:55.153Z,40.10
2023-03-03T22:23:22.168Z,40.10
2023-03-03T22:25:50.359Z,39.70
2023-03-03T22:28:18.691Z,40.80
2023-03-03T22:30:45.700Z,40.60
2023-03-03T22:33:16.515Z,41.10
2023-03-03T22:35:44.621Z,41.60
2023-03-03T22:38:11.619Z,41.60
2023-03-03T22:40:42.744Z,42.20
2023-03-03T22:43:14.678Z,42.10
2023-03-03T22:45:44.801Z,42.40
2023-03-03T22:48:12.609Z,42.60
2023-03-03T22:50:40.715Z,42.40
2023-03-03T22:53:07.724Z,42.40
2023-03-03T22:55:37.260Z,43.00
2023-03-03T22:58:08.198Z,42.70
2023-03-03T23:00:38.573Z,43.00
2023-03-03T23:03:10.522Z,43.60
2023-03-03T23:05:38.098Z,43.90
2023-03-03T23:08:10.971Z,44.20
2023-03-03T23:10:38.471Z,44.70
2023-03-03T23:13:05.471Z,45.30
2023-03-03T23:15:32.882Z,45.30
2023-03-03T23:18:00.149Z,45.70
2023-03-03T23:20:29.205Z,46.00
2023-03-03T23:22:56.470Z,45.40
2023-03-03T23:25:24.518Z,45.30
2023-03-03T23:27:52.443Z,45.60
2023-03-03T23:30:20.735Z,45.80
2023-03-03T23:32:48.366Z,46.40
2023-03-03T23:35:15.643Z,46.70
2023-03-03T23:37:43.753Z,46.40
2023-03-03T23:40:13.749Z,46.70
2023-03-03T23:42:41.145Z,47.10
2023-03-03T23:45:09.278Z,46.90
2023-03-03T23:47:36.448Z,47.10
2023-03-03T23:50:05.243Z,46.30
2023-03-03T23:52:32.349Z,45.80
2023-03-03T23:55:01.022Z,45.90
2023-03-03T23:57:28.314Z,45.90
2023-03-03T23:59:55.535Z,46.40
